createdAt,value
2023-05-24T00:04:30.829Z,13.03
2023-05-24T00:09:35.276Z,13.04
2023-05-24T00:14:42.707Z,13.05
2023-05-24T00:19:46.956Z,12.98
2023-05-24T00:24:54.864Z,12.98
2023-05-24T00:30:03.494Z,12.91
2023-05-24T00:35:09.004Z,12.87
2023-05-24T00:40:14.067Z,12.83
2023-05-24T00:45:19.834Z,12.80
2023-05-24T00:50:24.972Z,12.76
2023-05-24T00:55:29.016Z,12.75
2023-05-24T01:00:36.903Z,12.70
2023-05-24T01:05:44.478Z,12.62
2023-05-24T01:11:06.695Z,12.56
2023-05-24T01:16:19.676Z,12.49
2023-05-24T01:21:40.655Z,12.44
2023-05-24T01:27:00.877Z,12.44
2023-05-24T01:32:07.742Z,12.42
2023-05-24T01:37:14.630Z,12.35
2023-05-24T01:42:29.467Z,12.31
2023-05-24T01:47:45.194Z,12.31
2023-05-24T01:52:53.782Z,12.35
2023-05-24T01:58:05.015Z,12.35
2023-05-24T02:03:11.533Z,12.35
2023-05-24T02:08:18.163Z,12.32
2023-05-24T02:13:24.426Z,12.29
2023-05-24T02:18:35.120Z,12.33
2023-05-24T02:23:43.757Z,12.33
2023-05-24T02:28:54.507Z,12.33
2023-05-24T02:33:59.174Z,12.31
2023-05-24T02:39:04.655Z,12.30
2023-05-24T02:44:12.317Z,12.30
2023-05-24T02:49:17.483Z,12.28
2023-05-24T02:54:23.303Z,12.25
2023-05-24T02:59:28.911Z,12.23
2023-05-24T03:04:32.900Z,12.19
2023-05-24T03:09:39.621Z,12.18
2023-05-24T03:14:52.374Z,12.17
2023-05-24T03:19:59.441Z,12.16
2023-05-24T03:25:05.362Z,12.12
2023-05-24T03:30:17.204Z,12.11
2023-05-24T03:35:22.964Z,12.05
2023-05-24T03:40:33.011Z,12.00
2023-05-24T03:45:40.485Z,12.02
2023-05-24T03:50:55.645Z,12.04
2023-05-24T03:55:59.968Z,12.04
2023-05-24T04:01:06.990Z,12.05
2023-05-24T04:06:12.855Z,12.09
2023-05-24T04:11:18.663Z,12.11
2023-05-24T04:16:32.295Z,12.15
2023-05-24T04:21:42.515Z,12.16
2023-05-24T04:26:48.261Z,12.15
2023-05-24T04:32:07.958Z,12.18
2023-05-24T04:37:18.325Z,12.19
2023-05-24T04:42:22.984Z,12.19
2023-05-24T04:47:32.495Z,12.27
2023-05-24T04:52:38.255Z,12.29
2023-05-24T04:57:43.274Z,12.28
2023-05-24T05:02:49.415Z,12.31
2023-05-24T05:07:57.562Z,12.34
2023-05-24T05:13:04.562Z,12.38
2023-05-24T05:18:12.129Z,12.43
2023-05-24T05:23:24.951Z,12.49
2023-05-24T05:28:32.968Z,12.48
2023-05-24T05:33:41.414Z,12.56
2023-05-24T05:38:46.790Z,12.62
2023-05-24T05:43:52.718Z,12.69
2023-05-24T05:49:01.364Z,12.83
2023-05-24T05:54:09.141Z,12.92
2023-05-24T05:59:13.391Z,12.99
2023-05-24T06:04:36.907Z,13.20
2023-05-24T06:09:47.097Z,13.58
2023-05-24T06:14:52.822Z,13.83
2023-05-24T06:20:00.954Z,14.12
2023-05-24T06:25:08.998Z,14.19
2023-05-24T06:30:17.677Z,14.26
2023-05-24T06:35:29.508Z,14.45
2023-05-24T06:40:34.615Z,14.48
2023-05-24T06:45:39.825Z,14.49
2023-05-24T06:50:51.023Z,14.60
2023-05-24T06:55:58.326Z,14.61
2023-05-24T07:01:07.909Z,14.66
2023-05-24T07:06:18.124Z,14.71
2023-05-24T07:11:23.974Z,14.69
2023-05-24T07:16:28.754Z,14.81
2023-05-24T07:21:38.535Z,14.97
2023-05-24T07:26:44.760Z,15.16
2023-05-24T07:31:50.225Z,15.47
2023-05-24T07:36:59.275Z,15.65
2023-05-24T07:42:06.948Z,15.62
2023-05-24T07:47:14.177Z,15.54
2023-05-24T07:52:24.753Z,15.46
2023-05-24T07:57:40.274Z,15.41
2023-05-24T08:02:47.245Z,15.59
2023-05-24T08:07:53.587Z,15.83
2023-05-24T08:13:02.716Z,15.99
2023-05-24T08:18:09.095Z,15.99
2023-05-24T08:23:18.304Z,16.07
2023-05-24T08:28:24.208Z,16.13
2023-05-24T08:33:31.499Z,16.24
2023-05-24T08:38:41.342Z,16.55
2023-05-24T08:43:51.166Z,16.96
2023-05-24T08:48:59.556Z,17.23
2023-05-24T08:54:08.519Z,17.15
2023-05-24T08:59:16.307Z,17.00
2023-05-24T09:04:22.995Z,16.87
2023-05-24T09:09:34.302Z,16.89
2023-05-24T09:14:38.329Z,17.12
2023-05-24T09:19:46.149Z,17.31
2023-05-24T09:25:03.334Z,17.26
2023-05-24T09:30:11.363Z,17.31
2023-05-24T09:35:19.669Z,17.24
2023-05-24T09:40:26.043Z,17.41
2023-05-24T09:45:33.930Z,17.43
2023-05-24T09:50:42.045Z,17.57
2023-05-24T09:55:53.381Z,17.71
2023-05-24T10:01:08.990Z,17.95
2023-05-24T10:06:15.627Z,18.01
2023-05-24T10:11:22.745Z,18.04
2023-05-24T10:16:28.444Z,17.87
2023-05-24T10:21:40.026Z,17.71
2023-05-24T10:26:50.327Z,17.60
2023-05-24T10:31:57.426Z,17.79
2023-05-24T10:37:02.255Z,17.97
2023-05-24T10:42:10.322Z,17.91
2023-05-24T10:47:18.612Z,17.97
2023-05-24T10:52:24.511Z,18.08
2023-05-24T10:57:44.395Z,18.16
2023-05-24T11:02:57.042Z,18.13
2023-05-24T11:08:06.577Z,18.17
2023-05-24T11:13:16.165Z,18.25
2023-05-24T11:18:29.315Z,18.42
2023-05-24T11:23:37.352Z,18.55
2023-05-24T11:28:50.593Z,18.80
2023-05-24T11:33:55.803Z,18.90
2023-05-24T11:39:01.814Z,19.00
2023-05-24T11:44:09.368Z,19.12
2023-05-24T11:49:17.193Z,19.39
2023-05-24T11:54:22.805Z,19.30
2023-05-24T11:59:38.446Z,19.35
2023-05-24T12:04:53.483Z,19.12
2023-05-24T12:09:59.062Z,18.77
2023-05-24T12:15:10.140Z,18.86
2023-05-24T12:20:16.038Z,19.06
2023-05-24T12:25:32.869Z,18.99
2023-05-24T12:30:45.563Z,19.14
2023-05-24T12:35:51.725Z,19.32
2023-05-24T12:41:11.229Z,19.44
2023-05-24T12:46:20.306Z,19.50
2023-05-24T12:51:25.341Z,19.68
2023-05-24T12:56:30.850Z,19.76
2023-05-24T13:01:38.296Z,19.38
2023-05-24T13:06:43.348Z,19.24
2023-05-24T13:11:48.858Z,19.22
2023-05-24T13:16:56.058Z,19.34
2023-05-24T13:22:01.362Z,19.49
2023-05-24T13:27:08.572Z,19.25
2023-05-24T13:32:17.701Z,19.20
2023-05-24T13:37:22.451Z,19.12
2023-05-24T13:42:35.683Z,19.26
2023-05-24T13:47:43.504Z,19.15
2023-05-24T13:52:48.637Z,18.85
2023-05-24T13:57:52.974Z,18.75
2023-05-24T14:03:02.649Z,18.73
2023-05-24T14:08:11.644Z,18.70
2023-05-24T14:13:51.579Z,18.44
2023-05-24T14:18:44.876Z,18.43
2023-05-24T14:23:54.257Z,18.20
2023-05-24T14:28:58.166Z,18.18
2023-05-24T14:34:08.748Z,18.05
2023-05-24T14:39:15.979Z,18.01
2023-05-24T14:44:20.472Z,18.02
2023-05-24T14:49:26.712Z,17.89
2023-05-24T14:54:33.251Z,17.87
2023-05-24T14:59:39.976Z,17.78
2023-05-24T15:04:48.532Z,17.79
2023-05-24T15:09:53.481Z,17.81
2023-05-24T15:15:04.015Z,17.77
2023-05-24T15:20:13.577Z,17.68
2023-05-24T15:25:22.021Z,17.66
2023-05-24T15:30:26.814Z,17.63
2023-05-24T15:35:35.502Z,17.66
2023-05-24T15:40:42.675Z,17.71
2023-05-24T15:45:55.362Z,17.71
2023-05-24T15:56:17.587Z,17.54
2023-05-24T16:01:25.312Z,17.48
2023-05-24T16:06:34.524Z,17.40
2023-05-24T16:11:42.537Z,17.36
2023-05-24T16:16:51.306Z,17.32
2023-05-24T16:21:58.343Z,17.28
2023-05-24T16:27:04.573Z,17.22
2023-05-24T16:32:14.367Z,17.13
2023-05-24T16:37:26.368Z,17.06
2023-05-24T16:42:33.872Z,16.96
2023-05-24T16:47:38.481Z,16.94
2023-05-24T16:52:46.574Z,16.87
2023-05-24T16:57:52.910Z,16.78
2023-05-24T17:03:00.079Z,16.69
2023-05-24T17:08:08.908Z,16.59
2023-05-24T17:13:17.152Z,16.54
2023-05-24T17:18:30.325Z,16.54
2023-05-24T17:23:52.226Z,16.57
2023-05-24T17:28:57.501Z,16.54
2023-05-24T17:34:02.261Z,16.59
2023-05-24T17:39:12.594Z,16.57
2023-05-24T17:44:18.158Z,16.54
2023-05-24T17:49:22.487Z,16.47
2023-05-24T17:54:31.127Z,16.40
2023-05-24T17:59:37.536Z,16.33
2023-05-24T18:04:42.581Z,16.29
2023-05-24T18:09:51.885Z,16.22
2023-05-24T18:14:57.768Z,16.13
2023-05-24T18:20:07.872Z,15.97
2023-05-24T18:25:28.245Z,15.88
2023-05-24T18:30:36.141Z,15.77
2023-05-24T18:35:46.773Z,15.67
2023-05-24T18:41:12.825Z,15.57
2023-05-24T18:46:19.503Z,15.47
2023-05-24T18:51:29.552Z,15.38
2023-05-24T18:56:36.607Z,15.32
2023-05-24T19:01:45.533Z,15.23
2023-05-24T19:06:51.166Z,15.12
2023-05-24T19:12:00.190Z,15.02
2023-05-24T19:17:19.687Z,14.92
2023-05-24T19:22:32.038Z,14.82
2023-05-24T19:27:54.824Z,14.73
2023-05-24T19:33:07.133Z,14.62
2023-05-24T19:38:16.734Z,14.53
2023-05-24T19:43:25.945Z,14.47
2023-05-24T19:48:32.493Z,14.37
2023-05-24T19:53:37.278Z,14.30
2023-05-24T19:58:50.562Z,14.22
2023-05-24T20:03:56.498Z,14.12
2023-05-24T20:09:07.532Z,14.03
2023-05-24T20:14:13.584Z,13.92
2023-05-24T20:19:21.913Z,13.82
2023-05-24T20:24:26.286Z,13.77
2023-05-24T20:29:32.909Z,13.71
2023-05-24T20:34:43.093Z,13.66
2023-05-24T20:39:49.775Z,13.62
2023-05-24T20:44:59.511Z,13.56
2023-05-24T20:50:06.241Z,13.51
2023-05-24T20:55:13.706Z,13.46
2023-05-24T21:00:22.277Z,13.40
2023-05-24T21:05:30.577Z,13.31
2023-05-24T21:10:35.630Z,13.25
2023-05-24T21:15:45.303Z,13.20
2023-05-24T21:20:52.794Z,13.10
2023-05-24T21:26:01.215Z,13.04
2023-05-24T21:31:10.072Z,13.00
2023-05-24T21:36:14.391Z,12.97
2023-05-24T21:41:18.938Z,12.91
2023-05-24T21:46:25.966Z,12.88
2023-05-24T21:51:33.090Z,12.82
2023-05-24T21:56:37.123Z,12.78
2023-05-24T22:01:44.230Z,12.72
2023-05-24T22:06:48.535Z,12.65
2023-05-24T22:11:55.349Z,12.62
2023-05-24T22:17:02.785Z,12.56
2023-05-24T22:22:07.088Z,12.51
2023-05-24T22:27:14.552Z,12.47
2023-05-24T22:32:20.750Z,12.43
2023-05-24T22:37:28.339Z,12.40
2023-05-24T22:42:32.966Z,12.34
2023-05-24T22:47:41.182Z,12.28
2023-05-24T22:52:46.993Z,12.25
2023-05-24T22:57:53.168Z,12.21
2023-05-24T23:03:03.759Z,12.17
2023-05-24T23:08:08.381Z,12.14
2023-05-24T23:13:15.181Z,12.08
2023-05-24T23:18:22.825Z,12.05
2023-05-24T23:23:27.758Z,11.99
2023-05-24T23:28:32.532Z,11.96
2023-05-24T23:33:38.716Z,11.90
2023-05-24T23:38:44.878Z,11.86
2023-05-24T23:43:49.536Z,11.81
2023-05-24T23:48:55.561Z,11.77
2023-05-24T23:54:00.102Z,11.73
2023-05-24T23:59:05.280Z,11.66
